Time;durP1;ratioP1;P1;durP2;ratioP2;P2;SDS_P1;SDS_P2;PMS_P1;PMS_P2;Temp;Humidity;BMP_temperature;BMP_pressure;BME280_temperature;BME280_humidity;BME280_pressure;Samples;Min_cycle;Max_cycle;Signal;HPM_P1;HPM_P2
2022/11/10 00:00:22;;;;;;;9.77;5.20;;;;;;;;;;5062931;28;20422;-80
2022/11/10 00:02:49;;;;;;;9.00;4.40;;;;;;;;;;5065793;28;20418;-80
2022/11/10 00:05:16;;;;;;;17.20;5.60;;;;;;;;;;5068823;28;20419;-80
2022/11/10 00:07:42;;;;;;;16.95;5.50;;;;;;;;;;5064868;28;20915;-80
2022/11/10 00:10:11;;;;;;;9.10;5.00;;;;;;;;;;5066351;28;20440;-80
2022/11/10 00:12:38;;;;;;;7.13;4.38;;;;;;;;;;5069252;28;20415;-81
2022/11/10 00:17:49;;;;;;;9.48;4.88;;;;;;;;;;5070544;28;20451;-80
2022/11/10 00:20:16;;;;;;;13.57;4.85;;;;;;;;;;5068502;28;20416;-81
2022/11/10 00:22:42;;;;;;;11.13;5.10;;;;;;;;;;5069288;28;20436;-80
2022/11/10 00:25:09;;;;;;;9.50;4.60;;;;;;;;;;5064653;28;20414;-79
2022/11/10 00:27:37;;;;;;;10.88;5.50;;;;;;;;;;5064354;28;20415;-80
2022/11/10 00:30:05;;;;;;;14.52;5.03;;;;;;;;;;5067621;28;20424;-80
2022/11/10 00:32:32;;;;;;;11.60;5.80;;;;;;;;;;5068631;28;20416;-80
2022/11/10 00:34:58;;;;;;;16.73;5.88;;;;;;;;;;5068236;28;20423;-81
2022/11/10 00:37:25;;;;;;;14.20;5.72;;;;;;;;;;5067951;28;20915;-80
2022/11/10 00:39:51;;;;;;;12.45;4.95;;;;;;;;;;5069669;28;20495;-80
2022/11/10 00:42:18;;;;;;;11.40;5.47;;;;;;;;;;5064040;28;20405;-79
2022/11/10 00:44:46;;;;;;;9.17;5.30;;;;;;;;;;5065010;28;20424;-80
2022/11/10 00:47:13;;;;;;;12.73;5.60;;;;;;;;;;5065140;28;20416;-80
2022/11/10 00:49:40;;;;;;;11.20;5.60;;;;;;;;;;5067173;28;20405;-80
2022/11/10 00:52:06;;;;;;;12.07;5.68;;;;;;;;;;5068698;28;20432;-80
2022/11/10 00:54:32;;;;;;;14.05;5.63;;;;;;;;;;5064966;28;20399;-80
2022/11/10 00:56:59;;;;;;;11.38;6.57;;;;;;;;;;5070691;28;20417;-80
2022/11/10 00:59:25;;;;;;;12.65;6.53;;;;;;;;;;5063437;28;20430;-80
2022/11/10 01:01:53;;;;;;;13.40;5.80;;;;;;;;;;5063810;28;20424;-80
2022/11/10 01:04:20;;;;;;;10.73;5.68;;;;;;;;;;5064450;28;20430;-80
2022/11/10 01:06:48;;;;;;;10.57;5.90;;;;;;;;;;5063987;28;20427;-82
2022/11/10 01:09:14;;;;;;;12.88;6.43;;;;;;;;;;5057688;28;20422;-82
2022/11/10 01:11:41;;;;;;;14.90;6.63;;;;;;;;;;5062448;28;20425;-80
2022/11/10 01:14:07;;;;;;;13.40;6.68;;;;;;;;;;5064825;28;20508;-80
2022/11/10 01:16:37;;;;;;;17.30;6.93;;;;;;;;;;5080984;28;20794;-80
2022/11/10 01:19:08;;;;;;;11.77;7.28;;;;;;;;;;5078070;28;20487;-81
2022/11/10 01:21:34;;;;;;;13.77;7.95;;;;;;;;;;5068059;28;20426;-82
2022/11/10 01:24:04;;;;;;;16.30;7.80;;;;;;;;;;5068975;28;20470;-82
2022/11/10 01:26:30;;;;;;;15.68;8.00;;;;;;;;;;5069090;28;20436;-82
2022/11/10 01:28:57;;;;;;;18.48;9.20;;;;;;;;;;5072335;28;20422;-82
2022/11/10 01:31:23;;;;;;;29.05;10.50;;;;;;;;;;5067106;28;20423;-82
2022/11/10 01:33:49;;;;;;;16.83;9.80;;;;;;;;;;5070306;28;20459;-80
2022/11/10 01:36:17;;;;;;;15.95;8.90;;;;;;;;;;5066286;28;20424;-82
2022/11/10 01:38:44;;;;;;;15.68;9.07;;;;;;;;;;5068092;28;20932;-82
2022/11/10 01:41:11;;;;;;;17.47;8.50;;;;;;;;;;5067190;28;20466;-82
2022/11/10 01:43:38;;;;;;;17.30;9.38;;;;;;;;;;5072341;28;20415;-82
2022/11/10 01:46:05;;;;;;;14.93;8.82;;;;;;;;;;5073845;28;20425;-82
2022/11/10 01:48:34;;;;;;;18.85;9.60;;;;;;;;;;5067846;28;20477;-82
2022/11/10 01:51:02;;;;;;;19.63;10.63;;;;;;;;;;5068711;28;20424;-82
2022/11/10 01:53:31;;;;;;;18.27;9.30;;;;;;;;;;5064312;28;20429;-82
2022/11/10 01:55:57;;;;;;;16.92;9.23;;;;;;;;;;5068431;28;20430;-82
2022/11/10 01:58:26;;;;;;;16.42;9.60;;;;;;;;;;5069825;28;20437;-82
2022/11/10 02:00:53;;;;;;;15.00;8.82;;;;;;;;;;5068669;28;20439;-81
2022/11/10 02:03:24;;;;;;;18.38;9.50;;;;;;;;;;5068914;28;20436;-82
2022/11/10 02:05:50;;;;;;;18.13;9.50;;;;;;;;;;5067767;28;20427;-82
2022/11/10 02:08:18;;;;;;;17.85;9.63;;;;;;;;;;5066890;28;20429;-82
2022/11/10 02:10:46;;;;;;;18.88;10.60;;;;;;;;;;5068884;28;20421;-80
2022/11/10 02:13:14;;;;;;;22.90;10.32;;;;;;;;;;5070973;28;20486;-80
2022/11/10 02:15:40;;;;;;;16.83;9.52;;;;;;;;;;5065348;28;20412;-80
2022/11/10 02:18:06;;;;;;;18.00;9.77;;;;;;;;;;5066332;28;20431;-80
2022/11/10 02:20:35;;;;;;;18.45;10.40;;;;;;;;;;5066041;28;20488;-81
2022/11/10 02:23:13;;;;;;;24.25;10.10;;;;;;;;;;5066825;28;20429;-80
2022/11/10 02:25:39;;;;;;;21.60;10.60;;;;;;;;;;5062803;28;20431;-80
2022/11/10 02:28:06;;;;;;;23.23;11.15;;;;;;;;;;5065609;28;20408;-80
2022/11/10 02:30:32;;;;;;;25.52;9.85;;;;;;;;;;5063059;28;20423;-80
2022/11/10 02:32:59;;;;;;;22.02;10.45;;;;;;;;;;5070529;28;20429;-80
2022/11/10 02:35:25;;;;;;;22.13;10.90;;;;;;;;;;5068915;28;20419;-80
2022/11/10 02:37:51;;;;;;;28.58;11.10;;;;;;;;;;5065755;28;21145;-80
2022/11/10 02:40:22;;;;;;;22.25;9.32;;;;;;;;;;5074174;28;20411;-80
2022/11/10 02:42:48;;;;;;;23.02;10.35;;;;;;;;;;5070290;28;20412;-81
2022/11/10 02:45:15;;;;;;;20.65;10.23;;;;;;;;;;5065091;28;20417;-80
2022/11/10 02:47:41;;;;;;;19.52;9.90;;;;;;;;;;5064598;28;20428;-80
2022/11/10 02:50:08;;;;;;;25.25;10.60;;;;;;;;;;5063734;28;20420;-81
2022/11/10 02:52:34;;;;;;;20.20;10.20;;;;;;;;;;5066625;28;20412;-80
2022/11/10 02:55:01;;;;;;;20.33;9.48;;;;;;;;;;5063461;28;20525;-80
2022/11/10 02:57:28;;;;;;;26.08;10.88;;;;;;;;;;5066116;28;20799;-80
2022/11/10 02:59:55;;;;;;;20.30;9.70;;;;;;;;;;5075989;28;20408;-81
2022/11/10 03:02:22;;;;;;;24.13;9.77;;;;;;;;;;5085772;28;20494;-80
2022/11/10 03:04:49;;;;;;;22.03;10.47;;;;;;;;;;5080816;28;20432;-80
2022/11/10 03:07:16;;;;;;;16.38;9.57;;;;;;;;;;5067503;28;20420;-80
2022/11/10 03:09:47;;;;;;;21.90;10.80;;;;;;;;;;5065954;28;20411;-81
2022/11/10 03:12:13;;;;;;;19.50;9.40;;;;;;;;;;5066527;28;20424;-80
2022/11/10 03:14:41;;;;;;;19.85;10.05;;;;;;;;;;5071383;28;20786;-80
2022/11/10 03:17:07;;;;;;;23.30;9.70;;;;;;;;;;5067782;28;20407;-80
2022/11/10 03:19:34;;;;;;;23.95;10.40;;;;;;;;;;5064982;28;20936;-80
2022/11/10 03:22:01;;;;;;;20.00;10.10;;;;;;;;;;5070508;28;20423;-80
2022/11/10 03:24:27;;;;;;;18.63;9.95;;;;;;;;;;5066814;28;20402;-80
2022/11/10 03:26:54;;;;;;;16.67;9.85;;;;;;;;;;5075083;28;20432;-80
2022/11/10 03:29:20;;;;;;;24.92;10.45;;;;;;;;;;5068870;28;20423;-80
2022/11/10 03:31:48;;;;;;;22.67;10.00;;;;;;;;;;5068148;28;20429;-80
2022/11/10 03:34:15;;;;;;;20.30;10.70;;;;;;;;;;5063605;28;20425;-80
2022/11/10 03:36:41;;;;;;;18.30;9.45;;;;;;;;;;5070556;28;20409;-80
2022/11/10 03:39:08;;;;;;;16.65;10.20;;;;;;;;;;5066637;28;20437;-80
2022/11/10 03:41:35;;;;;;;20.90;10.27;;;;;;;;;;5069476;28;20416;-80
2022/11/10 03:44:02;;;;;;;21.55;10.88;;;;;;;;;;5070707;28;20481;-81
2022/11/10 03:46:29;;;;;;;23.10;9.97;;;;;;;;;;5065070;28;20425;-80
2022/11/10 03:48:58;;;;;;;19.45;9.73;;;;;;;;;;5068808;28;20425;-80
2022/11/10 03:51:25;;;;;;;20.93;10.40;;;;;;;;;;5063792;28;20437;-80
2022/11/10 03:53:53;;;;;;;22.48;10.63;;;;;;;;;;5067372;28;20433;-80
2022/11/10 03:56:20;;;;;;;23.13;10.80;;;;;;;;;;5064147;28;20443;-80
2022/11/10 03:58:46;;;;;;;23.02;10.48;;;;;;;;;;5068130;28;20429;-82
2022/11/10 04:01:15;;;;;;;25.75;10.30;;;;;;;;;;5066352;28;20430;-82
2022/11/10 04:03:41;;;;;;;23.20;10.88;;;;;;;;;;5065287;28;20958;-80
2022/11/10 04:09:00;;;;;;;23.60;10.40;;;;;;;;;;5068139;28;20396;-81
2022/11/10 04:16:57;;;;;;;23.85;9.88;;;;;;;;;;5064619;28;20412;-82
2022/11/10 04:19:23;;;;;;;22.80;10.13;;;;;;;;;;5068255;28;20425;-81
2022/11/10 04:21:51;;;;;;;24.98;10.63;;;;;;;;;;5063216;28;20923;-79
2022/11/10 04:24:18;;;;;;;19.55;10.95;;;;;;;;;;5063597;28;20428;-79
2022/11/10 04:26:46;;;;;;;25.25;10.77;;;;;;;;;;5063999;28;20413;-82
2022/11/10 04:29:13;;;;;;;21.17;10.00;;;;;;;;;;5065477;28;20481;-80
2022/11/10 04:31:41;;;;;;;21.27;11.17;;;;;;;;;;5066907;28;20425;-80
2022/11/10 04:34:08;;;;;;;25.15;10.75;;;;;;;;;;5066144;28;20489;-79
2022/11/10 04:36:35;;;;;;;23.60;11.00;;;;;;;;;;5066594;28;20904;-82
2022/11/10 04:39:04;;;;;;;20.42;10.13;;;;;;;;;;5065142;28;20793;-79
2022/11/10 04:41:32;;;;;;;23.30;10.20;;;;;;;;;;5067715;28;20425;-82
2022/11/10 04:43:59;;;;;;;17.77;9.50;;;;;;;;;;5071015;28;20421;-81
2022/11/10 04:46:27;;;;;;;22.77;10.52;;;;;;;;;;5065982;28;20430;-80
2022/11/10 04:48:54;;;;;;;19.65;9.73;;;;;;;;;;5070423;28;20413;-80
2022/11/10 04:51:21;;;;;;;21.87;10.80;;;;;;;;;;5070943;28;20494;-82
2022/11/10 04:53:47;;;;;;;19.80;10.45;;;;;;;;;;5071046;28;20411;-82
2022/11/10 04:56:19;;;;;;;21.20;10.68;;;;;;;;;;5066845;28;20417;-82
2022/11/10 04:58:47;;;;;;;21.45;10.00;;;;;;;;;;5066867;28;20441;-82
2022/11/10 05:01:16;;;;;;;23.75;11.55;;;;;;;;;;5065317;28;20437;-82
2022/11/10 05:03:43;;;;;;;22.55;11.20;;;;;;;;;;5070486;28;20425;-81
2022/11/10 05:06:10;;;;;;;22.50;10.80;;;;;;;;;;5071457;28;20500;-81
2022/11/10 05:08:37;;;;;;;20.10;10.55;;;;;;;;;;5071092;28;20434;-81
2022/11/10 05:11:03;;;;;;;23.50;9.60;;;;;;;;;;5069546;28;20418;-81
2022/11/10 05:13:31;;;;;;;21.25;11.15;;;;;;;;;;5067252;28;20413;-81
2022/11/10 05:15:58;;;;;;;24.35;11.65;;;;;;;;;;5068664;28;20425;-81
2022/11/10 05:18:24;;;;;;;20.30;12.10;;;;;;;;;;5070207;28;20414;-81
2022/11/10 05:20:52;;;;;;;22.80;11.70;;;;;;;;;;5069474;28;20940;-81
2022/11/10 05:26:03;;;;;;;26.37;13.20;;;;;;;;;;5070503;28;20497;-81
2022/11/10 05:28:31;;;;;;;31.17;13.70;;;;;;;;;;5068042;28;20444;-81
2022/11/10 05:30:57;;;;;;;25.15;15.02;;;;;;;;;;5069612;28;20824;-81
2022/11/10 05:33:24;;;;;;;25.90;14.23;;;;;;;;;;5065402;28;20909;-81
2022/11/10 05:35:51;;;;;;;25.92;14.60;;;;;;;;;;5066788;28;20433;-81
2022/11/10 05:38:17;;;;;;;31.15;15.27;;;;;;;;;;5074299;28;20422;-81
2022/11/10 05:40:44;;;;;;;26.98;15.95;;;;;;;;;;5069688;28;20404;-82
2022/11/10 05:43:11;;;;;;;33.95;16.92;;;;;;;;;;5068520;28;20420;-82
2022/11/10 05:45:39;;;;;;;31.30;15.80;;;;;;;;;;5064506;28;20444;-82
2022/11/10 05:48:06;;;;;;;27.63;15.82;;;;;;;;;;5070870;28;20422;-81
2022/11/10 05:50:33;;;;;;;29.42;15.95;;;;;;;;;;5066755;28;20447;-82
2022/11/10 05:52:59;;;;;;;27.73;16.50;;;;;;;;;;5074108;28;20425;-81
2022/11/10 05:55:28;;;;;;;31.23;17.35;;;;;;;;;;5072701;28;20420;-82
2022/11/10 05:57:55;;;;;;;34.13;17.73;;;;;;;;;;5069957;28;20429;-81
2022/11/10 06:00:23;;;;;;;32.88;18.15;;;;;;;;;;5069310;28;20430;-82
2022/11/10 06:03:04;;;;;;;31.83;17.30;;;;;;;;;;5069899;28;20423;-81
2022/11/10 06:05:31;;;;;;;37.75;18.70;;;;;;;;;;5066746;28;20423;-81
2022/11/10 06:08:01;;;;;;;41.03;19.10;;;;;;;;;;5064519;28;20425;-81
2022/11/10 06:10:28;;;;;;;35.83;18.65;;;;;;;;;;5070379;28;20429;-79
2022/11/10 06:12:54;;;;;;;37.88;18.70;;;;;;;;;;5066430;28;20404;-79
2022/11/10 06:15:21;;;;;;;31.77;18.60;;;;;;;;;;5066231;28;20433;-80
2022/11/10 06:17:48;;;;;;;38.15;19.65;;;;;;;;;;5068986;28;20452;-79
2022/11/10 06:20:17;;;;;;;34.25;18.73;;;;;;;;;;5069821;28;20423;-82
2022/11/10 06:22:43;;;;;;;35.45;19.73;;;;;;;;;;5067000;28;20416;-82
2022/11/10 06:25:10;;;;;;;37.60;20.80;;;;;;;;;;5070498;28;20495;-82
2022/11/10 06:27:36;;;;;;;30.73;20.58;;;;;;;;;;5070543;28;20911;-82
2022/11/10 06:30:04;;;;;;;37.03;20.48;;;;;;;;;;5060530;28;20420;-80
2022/11/10 06:32:33;;;;;;;34.13;20.17;;;;;;;;;;5067279;28;20456;-80
2022/11/10 06:34:59;;;;;;;39.35;20.80;;;;;;;;;;5068907;28;20562;-82
2022/11/10 06:37:27;;;;;;;33.73;21.20;;;;;;;;;;5068339;28;20412;-80
2022/11/10 06:39:53;;;;;;;42.10;21.60;;;;;;;;;;5071638;28;20416;-80
2022/11/10 06:42:20;;;;;;;39.42;21.95;;;;;;;;;;5070506;28;20439;-80
2022/11/10 06:44:46;;;;;;;42.03;21.70;;;;;;;;;;5066219;28;20893;-80
2022/11/10 06:47:13;;;;;;;40.72;21.55;;;;;;;;;;5061464;28;22068;-80
2022/11/10 06:49:39;;;;;;;40.03;22.67;;;;;;;;;;5064194;28;20476;-80
2022/11/10 06:52:05;;;;;;;39.57;22.07;;;;;;;;;;5065192;28;20511;-82
2022/11/10 06:54:34;;;;;;;34.47;23.15;;;;;;;;;;5069682;28;20416;-80
2022/11/10 06:57:01;;;;;;;39.67;22.20;;;;;;;;;;5065315;28;20434;-80
2022/11/10 06:59:28;;;;;;;46.35;23.60;;;;;;;;;;5065842;28;20522;-82
2022/11/10 07:01:54;;;;;;;41.58;23.58;;;;;;;;;;5070434;28;20498;-80
2022/11/10 07:04:20;;;;;;;35.92;23.30;;;;;;;;;;5065729;28;20432;-82
2022/11/10 07:06:47;;;;;;;41.38;24.42;;;;;;;;;;5065132;28;20910;-81
2022/11/10 07:09:13;;;;;;;44.55;23.33;;;;;;;;;;5063897;28;20914;-82
2022/11/10 07:11:41;;;;;;;43.13;23.63;;;;;;;;;;5066754;28;20902;-80
2022/11/10 07:14:10;;;;;;;45.30;23.40;;;;;;;;;;5068183;28;20417;-80
2022/11/10 07:16:36;;;;;;;37.67;23.63;;;;;;;;;;5062539;28;20457;-80
2022/11/10 07:19:05;;;;;;;34.75;22.50;;;;;;;;;;5065196;28;20864;-80
2022/11/10 07:21:34;;;;;;;35.83;22.40;;;;;;;;;;5065604;28;20445;-80
2022/11/10 07:24:01;;;;;;;42.97;23.67;;;;;;;;;;5068690;28;20409;-80
2022/11/10 07:26:27;;;;;;;37.33;22.53;;;;;;;;;;5071215;28;20412;-80
2022/11/10 07:28:56;;;;;;;38.45;22.80;;;;;;;;;;5068476;28;20420;-80
2022/11/10 07:31:22;;;;;;;40.80;22.60;;;;;;;;;;5071203;28;20498;-80
2022/11/10 07:33:49;;;;;;;39.72;22.77;;;;;;;;;;5066932;28;20413;-80
2022/11/10 07:36:16;;;;;;;41.42;23.25;;;;;;;;;;5068130;28;20921;-81
2022/11/10 07:38:43;;;;;;;38.30;22.63;;;;;;;;;;5063623;28;20416;-80
2022/11/10 07:41:10;;;;;;;37.57;21.80;;;;;;;;;;5063806;28;20429;-80
2022/11/10 07:43:37;;;;;;;37.15;22.83;;;;;;;;;;5068455;28;20524;-81
2022/11/10 07:46:05;;;;;;;38.58;23.60;;;;;;;;;;5065750;28;20424;-81
2022/11/10 07:48:33;;;;;;;38.67;22.97;;;;;;;;;;5064385;28;20506;-80
2022/11/10 07:51:00;;;;;;;37.53;23.85;;;;;;;;;;5063205;28;20911;-80
2022/11/10 07:53:27;;;;;;;34.60;22.50;;;;;;;;;;5065916;28;20405;-81
2022/11/10 07:55:54;;;;;;;34.33;21.50;;;;;;;;;;5063834;28;20837;-80
2022/11/10 07:58:20;;;;;;;38.65;21.67;;;;;;;;;;5064147;28;20562;-82
2022/11/10 08:00:49;;;;;;;37.70;21.67;;;;;;;;;;5066942;28;20417;-81
2022/11/10 08:03:17;;;;;;;40.83;23.13;;;;;;;;;;5062847;28;20409;-82
2022/11/10 08:05:44;;;;;;;37.47;21.20;;;;;;;;;;5064910;28;20415;-82
2022/11/10 08:08:11;;;;;;;39.63;22.17;;;;;;;;;;5065411;28;20425;-80
2022/11/10 08:10:38;;;;;;;35.10;21.40;;;;;;;;;;5075266;28;20495;-81
2022/11/10 08:13:08;;;;;;;37.90;21.10;;;;;;;;;;5063667;28;20463;-82
2022/11/10 08:15:36;;;;;;;36.33;21.73;;;;;;;;;;5070425;28;20421;-82
2022/11/10 08:18:06;;;;;;;30.80;20.60;;;;;;;;;;5068406;28;20418;-79
2022/11/10 08:20:34;;;;;;;33.42;20.73;;;;;;;;;;5069254;28;20804;-81
2022/11/10 08:23:03;;;;;;;36.15;19.70;;;;;;;;;;5071423;28;20846;-80
2022/11/10 08:25:32;;;;;;;39.30;20.70;;;;;;;;;;5069237;28;20429;-81
2022/11/10 08:27:59;;;;;;;36.03;19.77;;;;;;;;;;5070962;28;20439;-80
2022/11/10 08:30:26;;;;;;;33.07;20.60;;;;;;;;;;5072430;28;20422;-80
2022/11/10 08:32:54;;;;;;;33.45;20.70;;;;;;;;;;5074006;28;20411;-80
2022/11/10 08:35:20;;;;;;;32.38;19.85;;;;;;;;;;5069662;28;20422;-80
2022/11/10 08:37:48;;;;;;;35.83;19.98;;;;;;;;;;5075163;28;20506;-80
2022/11/10 08:40:15;;;;;;;34.17;18.20;;;;;;;;;;5070085;28;20415;-81
2022/11/10 08:42:41;;;;;;;35.88;19.80;;;;;;;;;;5071258;28;20411;-80
2022/11/10 08:45:08;;;;;;;36.92;20.20;;;;;;;;;;5070335;28;20418;-81
2022/11/10 08:47:34;;;;;;;32.40;19.20;;;;;;;;;;5073288;28;20415;-80
2022/11/10 08:50:01;;;;;;;28.73;18.63;;;;;;;;;;5072105;28;20407;-81
2022/11/10 08:52:27;;;;;;;29.33;18.38;;;;;;;;;;5066846;28;20440;-80
2022/11/10 08:54:55;;;;;;;36.55;18.33;;;;;;;;;;5075211;28;20417;-81
2022/11/10 08:57:21;;;;;;;33.17;18.30;;;;;;;;;;5075082;28;20415;-81
2022/11/10 08:59:48;;;;;;;37.85;18.50;;;;;;;;;;5071992;28;20419;-81
2022/11/10 09:02:14;;;;;;;31.38;18.40;;;;;;;;;;5072614;28;20430;-81
2022/11/10 09:04:42;;;;;;;28.17;16.50;;;;;;;;;;5073751;28;20416;-81
2022/11/10 09:07:08;;;;;;;27.30;15.48;;;;;;;;;;5071184;28;20800;-81
2022/11/10 09:09:35;;;;;;;29.88;16.48;;;;;;;;;;5072976;28;20786;-81
2022/11/10 09:12:03;;;;;;;26.38;14.85;;;;;;;;;;5072956;28;20425;-80
2022/11/10 09:14:29;;;;;;;23.95;14.57;;;;;;;;;;5074599;28;20926;-81
2022/11/10 09:16:57;;;;;;;22.48;14.43;;;;;;;;;;5077045;28;20424;-81
2022/11/10 09:19:26;;;;;;;27.40;14.70;;;;;;;;;;5075770;28;20408;-80
2022/11/10 09:21:53;;;;;;;24.17;13.80;;;;;;;;;;5071260;28;20429;-80
2022/11/10 09:24:20;;;;;;;27.13;14.87;;;;;;;;;;5071166;28;20434;-81
2022/11/10 09:26:46;;;;;;;26.05;13.20;;;;;;;;;;5074495;28;20420;-81
2022/11/10 09:29:21;;;;;;;21.55;12.88;;;;;;;;;;5073604;28;20472;-81
2022/11/10 09:31:47;;;;;;;24.95;12.55;;;;;;;;;;5072210;28;20806;-81
2022/11/10 09:34:14;;;;;;;25.30;13.10;;;;;;;;;;5070676;28;20440;-80
2022/11/10 09:36:41;;;;;;;27.25;12.07;;;;;;;;;;5068382;28;20420;-81
2022/11/10 09:39:08;;;;;;;22.08;12.60;;;;;;;;;;5072275;28;20421;-81
2022/11/10 09:41:38;;;;;;;23.83;12.38;;;;;;;;;;5074211;28;20431;-81
2022/11/10 09:44:06;;;;;;;25.23;12.57;;;;;;;;;;5070790;28;20419;-81
2022/11/10 09:46:36;;;;;;;22.08;12.13;;;;;;;;;;5072471;28;20424;-80
2022/11/10 09:49:06;;;;;;;29.33;12.07;;;;;;;;;;5068298;28;20433;-80
2022/11/10 09:51:38;;;;;;;24.38;12.98;;;;;;;;;;5072115;28;20405;-81
2022/11/10 09:54:10;;;;;;;23.40;11.73;;;;;;;;;;5071559;28;20466;-81
2022/11/10 09:56:37;;;;;;;23.63;12.27;;;;;;;;;;5073272;28;20430;-80
2022/11/10 09:59:06;;;;;;;22.55;11.43;;;;;;;;;;5071228;28;20429;-81
2022/11/10 10:01:40;;;;;;;24.30;11.50;;;;;;;;;;5074375;28;20472;-81
2022/11/10 10:04:13;;;;;;;19.65;12.40;;;;;;;;;;5073040;28;20415;-81
2022/11/10 10:06:45;;;;;;;20.80;11.32;;;;;;;;;;5090262;28;20437;-81
2022/11/10 10:09:16;;;;;;;24.05;12.93;;;;;;;;;;5086102;28;20408;-81
2022/11/10 10:11:49;;;;;;;26.63;11.53;;;;;;;;;;5067859;28;20783;-81
2022/11/10 10:14:25;;;;;;;23.83;12.07;;;;;;;;;;5074427;28;20414;-80
2022/11/10 10:17:00;;;;;;;22.10;11.57;;;;;;;;;;5068904;28;20420;-81
2022/11/10 10:19:31;;;;;;;22.15;11.63;;;;;;;;;;5068321;28;20414;-80
2022/11/10 10:22:20;;;;;;;27.15;12.60;;;;;;;;;;5072725;28;20428;-81
2022/11/10 10:24:48;;;;;;;24.10;11.95;;;;;;;;;;5073539;28;20413;-81
2022/11/10 10:27:20;;;;;;;23.17;11.05;;;;;;;;;;5071997;28;20788;-80
2022/11/10 10:29:48;;;;;;;20.85;10.68;;;;;;;;;;5071927;28;20427;-81
2022/11/10 10:32:16;;;;;;;24.38;11.90;;;;;;;;;;5071912;28;20431;-80
2022/11/10 10:34:43;;;;;;;29.55;12.88;;;;;;;;;;5068141;28;20773;-80
2022/11/10 10:37:20;;;;;;;25.42;11.90;;;;;;;;;;5069539;28;20411;-81
2022/11/10 10:39:49;;;;;;;21.25;10.90;;;;;;;;;;5068474;28;20414;-81
2022/11/10 10:42:19;;;;;;;23.65;10.63;;;;;;;;;;5068430;28;20497;-80
2022/11/10 10:45:02;;;;;;;16.90;9.73;;;;;;;;;;5069228;28;20404;-80
2022/11/10 10:47:37;;;;;;;22.58;9.68;;;;;;;;;;5064627;28;20421;-80
2022/11/10 10:50:22;;;;;;;20.63;9.60;;;;;;;;;;5068253;28;20427;-79
2022/11/10 10:53:05;;;;;;;20.65;9.13;;;;;;;;;;5069723;28;20510;-79
2022/11/10 10:55:31;;;;;;;18.70;9.40;;;;;;;;;;5068508;28;20408;-80
2022/11/10 10:57:59;;;;;;;23.70;10.13;;;;;;;;;;5065337;28;20427;-80
2022/11/10 11:00:26;;;;;;;18.25;8.30;;;;;;;;;;5068392;28;20411;-80
2022/11/10 11:03:02;;;;;;;17.08;8.00;;;;;;;;;;5069789;28;20490;-80
2022/11/10 11:05:29;;;;;;;19.80;8.93;;;;;;;;;;5070323;28;20418;-82
2022/11/10 11:07:56;;;;;;;19.77;9.30;;;;;;;;;;5069907;28;20417;-82
2022/11/10 11:10:24;;;;;;;16.98;8.15;;;;;;;;;;5064803;28;20414;-83
2022/11/10 11:12:50;;;;;;;22.63;8.60;;;;;;;;;;5067301;28;20424;-80
2022/11/10 11:15:25;;;;;;;16.70;8.32;;;;;;;;;;5064132;28;20432;-82
2022/11/10 11:17:56;;;;;;;21.60;9.23;;;;;;;;;;5063812;28;20530;-82
2022/11/10 11:20:28;;;;;;;17.05;8.80;;;;;;;;;;5068758;28;20421;-82
2022/11/10 11:22:56;;;;;;;18.30;8.82;;;;;;;;;;5070634;28;20431;-79
2022/11/10 11:25:34;;;;;;;16.30;8.50;;;;;;;;;;5070455;28;20408;-80
2022/11/10 11:28:06;;;;;;;18.23;8.00;;;;;;;;;;5067737;28;20420;-82
2022/11/10 11:30:41;;;;;;;20.63;9.00;;;;;;;;;;5066197;28;20420;-81
2022/11/10 11:33:13;;;;;;;19.88;9.15;;;;;;;;;;5066977;28;20399;-81
2022/11/10 11:35:46;;;;;;;18.50;8.20;;;;;;;;;;5066931;28;20419;-81
2022/11/10 11:38:14;;;;;;;16.92;7.38;;;;;;;;;;5074556;28;20412;-81
2022/11/10 11:40:47;;;;;;;22.38;8.77;;;;;;;;;;5065302;28;21047;-81
2022/11/10 11:43:20;;;;;;;14.15;7.15;;;;;;;;;;5070116;28;20451;-81
2022/11/10 11:45:48;;;;;;;14.52;6.80;;;;;;;;;;5065618;28;21009;-82
2022/11/10 11:48:22;;;;;;;19.55;6.65;;;;;;;;;;5069087;28;20425;-81
2022/11/10 11:50:53;;;;;;;17.08;7.63;;;;;;;;;;5067031;28;20882;-81
2022/11/10 11:53:36;;;;;;;17.80;7.63;;;;;;;;;;5067171;28;20508;-81
2022/11/10 11:56:10;;;;;;;22.50;7.40;;;;;;;;;;5070428;28;20417;-83
2022/11/10 11:58:43;;;;;;;16.38;6.80;;;;;;;;;;5065720;28;20442;-82
2022/11/10 12:01:18;;;;;;;18.83;6.82;;;;;;;;;;5064402;28;20415;-81
2022/11/10 12:03:59;;;;;;;19.00;7.20;;;;;;;;;;5065036;28;20416;-81
2022/11/10 12:06:41;;;;;;;15.85;6.70;;;;;;;;;;5050627;28;20428;-81
2022/11/10 12:09:15;;;;;;;13.93;6.90;;;;;;;;;;5070903;28;20410;-81
2022/11/10 12:11:50;;;;;;;16.23;6.88;;;;;;;;;;5084674;28;20434;-81
2022/11/10 12:14:19;;;;;;;16.70;7.20;;;;;;;;;;5085744;28;20430;-82
2022/11/10 12:16:50;;;;;;;19.95;6.85;;;;;;;;;;5088438;28;20904;-81
2022/11/10 12:19:22;;;;;;;14.63;7.00;;;;;;;;;;5085454;28;20471;-82
2022/11/10 12:21:51;;;;;;;12.35;6.72;;;;;;;;;;5064695;28;20914;-81
2022/11/10 12:24:22;;;;;;;18.05;7.00;;;;;;;;;;5067848;28;20414;-81
2022/11/10 12:26:52;;;;;;;18.30;6.82;;;;;;;;;;5067681;28;20429;-82
2022/11/10 12:29:24;;;;;;;15.33;6.30;;;;;;;;;;5065141;28;20485;-82
2022/11/10 12:31:52;;;;;;;18.52;6.18;;;;;;;;;;5069752;28;20905;-81
2022/11/10 12:34:24;;;;;;;17.30;6.88;;;;;;;;;;5065953;28;20427;-81
2022/11/10 12:36:51;;;;;;;18.73;6.60;;;;;;;;;;5068744;28;20415;-81
2022/11/10 12:39:22;;;;;;;21.05;6.60;;;;;;;;;;5068790;28;20414;-82
2022/11/10 12:41:49;;;;;;;22.00;8.38;;;;;;;;;;5064076;28;20431;-82
2022/11/10 12:44:20;;;;;;;18.17;7.60;;;;;;;;;;5064907;28;20415;-82
2022/11/10 12:46:50;;;;;;;15.23;5.70;;;;;;;;;;5066429;28;21056;-81
2022/11/10 12:49:18;;;;;;;18.38;6.13;;;;;;;;;;5066920;28;20430;-82
2022/11/10 12:51:49;;;;;;;15.70;5.80;;;;;;;;;;5069177;28;20412;-81
2022/11/10 12:54:17;;;;;;;18.73;6.75;;;;;;;;;;5067616;28;20413;-81
2022/11/10 12:56:47;;;;;;;13.82;5.65;;;;;;;;;;5067429;28;20432;-81
2022/11/10 12:59:28;;;;;;;16.02;5.95;;;;;;;;;;5064763;28;20888;-80
2022/11/10 13:02:06;;;;;;;16.25;6.13;;;;;;;;;;5066703;28;20426;-81
2022/11/10 13:04:33;;;;;;;16.02;5.75;;;;;;;;;;5064535;28;20806;-81
2022/11/10 13:07:01;;;;;;;14.57;5.40;;;;;;;;;;5069579;28;20420;-81
2022/11/10 13:09:29;;;;;;;21.75;5.55;;;;;;;;;;5070529;28;20416;-81
2022/11/10 13:12:19;;;;;;;12.95;5.65;;;;;;;;;;5070091;28;20412;-82
2022/11/10 13:14:48;;;;;;;18.60;6.00;;;;;;;;;;5053722;28;20419;-82
2022/11/10 13:17:35;;;;;;;21.35;5.05;;;;;;;;;;5069348;28;20434;-82
2022/11/10 13:20:02;;;;;;;14.00;5.10;;;;;;;;;;5069226;28;20423;-81
2022/11/10 13:22:30;;;;;;;16.88;5.50;;;;;;;;;;5075246;28;20445;-81
2022/11/10 13:25:11;;;;;;;17.65;5.60;;;;;;;;;;5071925;28;20424;-81
2022/11/10 13:27:52;;;;;;;16.80;5.40;;;;;;;;;;5070286;28;20416;-82
2022/11/10 13:30:35;;;;;;;20.80;5.53;;;;;;;;;;5066050;28;20412;-81
2022/11/10 13:33:16;;;;;;;16.50;5.30;;;;;;;;;;5067056;28;20416;-82
2022/11/10 13:35:52;;;;;;;17.75;4.80;;;;;;;;;;5068816;28;20424;-82
2022/11/10 13:38:33;;;;;;;17.05;4.82;;;;;;;;;;5068616;28;20891;-82
2022/11/10 13:41:12;;;;;;;16.95;5.00;;;;;;;;;;5076100;28;20453;-82
2022/11/10 13:43:47;;;;;;;12.00;4.38;;;;;;;;;;5063777;28;20421;-82
2022/11/10 13:46:16;;;;;;;17.65;5.30;;;;;;;;;;5066042;28;20433;-80
2022/11/10 13:48:57;;;;;;;18.02;5.10;;;;;;;;;;5065980;28;20409;-82
2022/11/10 13:51:30;;;;;;;13.95;5.57;;;;;;;;;;5068434;28;20432;-81
2022/11/10 13:54:04;;;;;;;19.58;4.63;;;;;;;;;;5070455;28;20421;-82
2022/11/10 13:56:57;;;;;;;16.50;4.57;;;;;;;;;;5071635;28;20438;-82
2022/11/10 13:59:25;;;;;;;12.82;4.65;;;;;;;;;;5023523;28;20428;-82
2022/11/10 14:01:51;;;;;;;17.92;5.35;;;;;;;;;;5069057;28;20435;-82
2022/11/10 14:04:38;;;;;;;17.43;4.80;;;;;;;;;;5070126;28;20405;-82
2022/11/10 14:07:12;;;;;;;16.13;4.20;;;;;;;;;;5067140;28;20454;-82
2022/11/10 14:09:40;;;;;;;18.67;4.38;;;;;;;;;;5072435;28;20407;-81
2022/11/10 14:12:15;;;;;;;17.27;4.60;;;;;;;;;;5072329;28;20419;-82
2022/11/10 14:14:50;;;;;;;15.55;4.80;;;;;;;;;;5066056;28;20424;-82
2022/11/10 14:17:19;;;;;;;20.15;4.95;;;;;;;;;;5067280;28;20931;-82
2022/11/10 14:19:46;;;;;;;19.27;5.25;;;;;;;;;;5066416;28;20414;-82
2022/11/10 14:22:18;;;;;;;19.15;5.05;;;;;;;;;;5066282;28;20457;-82
2022/11/10 14:24:51;;;;;;;18.83;5.03;;;;;;;;;;5060757;28;20452;-82
2022/11/10 14:27:21;;;;;;;17.15;4.00;;;;;;;;;;5062965;28;20434;-80
2022/11/10 14:29:49;;;;;;;15.10;4.32;;;;;;;;;;5071315;28;20417;-80
2022/11/10 14:32:17;;;;;;;14.10;4.60;;;;;;;;;;5065742;28;20415;-80
2022/11/10 14:34:45;;;;;;;14.38;3.92;;;;;;;;;;5069040;28;20403;-80
2022/11/10 14:37:14;;;;;;;18.08;4.47;;;;;;;;;;5065650;28;20413;-81
2022/11/10 14:39:42;;;;;;;20.55;5.10;;;;;;;;;;5081302;28;20416;-81
2022/11/10 14:42:14;;;;;;;15.98;4.00;;;;;;;;;;5068080;28;20518;-82
2022/11/10 14:44:45;;;;;;;14.20;4.30;;;;;;;;;;5066303;28;20504;-82
2022/11/10 14:47:22;;;;;;;17.05;4.43;;;;;;;;;;5068767;28;20421;-82